Time;durP1;ratioP1;P1;durP2;ratioP2;P2;SDS_P1;SDS_P2;PMS_P1;PMS_P2;Temp;Humidity;BMP_temperature;BMP_pressure;BME280_temperature;BME280_humidity;BME280_pressure;Samples;Min_cycle;Max_cycle;Signal;HPM_P1;HPM_P2
2023/05/17 00:01:33;;;;;;;16.38;6.57;;;;;;;13.82;63.75;150760.56;5046736;28;20029;-64
2023/05/17 00:03:59;;;;;;;12.13;6.20;;;;;;;13.74;64.13;150740.03;5046725;28;20095;-65
2023/05/17 00:06:25;;;;;;;12.05;6.35;;;;;;;13.68;63.13;150725.91;5046673;28;20033;-64
2023/05/17 00:08:50;;;;;;;12.13;6.25;;;;;;;13.66;64.66;150719.47;5046657;28;20025;-64
2023/05/17 00:11:16;;;;;;;13.02;6.47;;;;;;;13.66;63.20;150719.47;5046361;28;20363;-64
2023/05/17 00:13:41;;;;;;;12.35;6.43;;;;;;;13.67;64.53;150723.31;5046473;28;20039;-65
2023/05/17 00:16:07;;;;;;;11.27;5.90;;;;;;;13.64;63.60;150716.88;5046197;28;20025;-65
2023/05/17 00:18:33;;;;;;;13.02;6.30;;;;;;;13.67;63.39;150723.31;5046226;28;20096;-65
2023/05/17 00:20:58;;;;;;;12.18;6.45;;;;;;;13.58;65.03;150701.47;5028434;28;20044;-65
2023/05/17 00:23:24;;;;;;;9.57;5.65;;;;;;;13.61;63.85;150707.84;5046448;28;20378;-64
2023/05/17 00:25:50;;;;;;;13.77;6.47;;;;;;;13.63;64.58;150714.28;5028465;28;20038;-64
2023/05/17 00:28:15;;;;;;;11.68;6.72;;;;;;;13.63;64.71;150714.28;5046060;28;20025;-63
2023/05/17 00:30:41;;;;;;;15.52;6.90;;;;;;;13.52;64.98;150686.00;5034161;28;20033;-63
2023/05/17 00:33:07;;;;;;;10.82;6.32;;;;;;;13.55;65.01;150692.44;5062876;28;20033;-62
2023/05/17 00:35:33;;;;;;;13.02;6.50;;;;;;;13.43;64.39;150662.91;5045703;28;20032;-63
2023/05/17 00:37:58;;;;;;;13.52;6.50;;;;;;;13.45;65.00;150668.03;5028249;28;20036;-64
2023/05/17 00:40:24;;;;;;;16.17;7.15;;;;;;;13.33;64.33;150638.44;5045907;28;20036;-64
2023/05/17 00:42:50;;;;;;;14.10;7.30;;;;;;;13.34;65.14;150639.69;5046085;28;20025;-64
2023/05/17 00:45:15;;;;;;;13.57;6.80;;;;;;;13.37;64.75;150648.75;5045537;28;20032;-64
2023/05/17 00:47:41;;;;;;;12.57;6.72;;;;;;;13.31;64.94;150633.31;5045950;28;20032;-64
2023/05/17 00:50:07;;;;;;;10.02;6.53;;;;;;;13.26;65.23;150621.72;5044331;28;20399;-65
2023/05/17 00:52:34;;;;;;;13.70;7.22;;;;;;;13.19;65.55;150602.44;5045727;28;20029;-64
2023/05/17 00:55:00;;;;;;;10.68;6.28;;;;;;;13.25;65.66;150617.84;5045286;28;20029;-63
2023/05/17 00:57:28;;;;;;;11.38;7.03;;;;;;;13.18;65.36;150601.19;5045661;28;20326;-63
2023/05/17 00:59:54;;;;;;;12.15;6.57;;;;;;;13.17;65.58;150598.59;5045681;28;20033;-62
2023/05/17 01:02:20;;;;;;;16.20;6.88;;;;;;;13.23;66.07;150614.00;5045578;28;20037;-62
2023/05/17 01:04:47;;;;;;;14.77;7.03;;;;;;;13.03;65.85;150562.63;5044841;28;20092;-63
2023/05/17 01:07:13;;;;;;;11.70;6.32;;;;;;;13.09;65.89;150579.31;5045359;28;20045;-63
2023/05/17 01:09:39;;;;;;;13.95;7.15;;;;;;;13.18;66.80;150599.88;5045426;28;20479;-63
2023/05/17 01:12:29;;;;;;;16.48;6.90;;;;;;;13.21;66.17;150608.88;5045211;28;20145;-63
2023/05/17 01:15:07;;;;;;;13.13;6.88;;;;;;;13.12;66.23;150587.06;5045578;28;20030;-63
2023/05/17 01:17:40;;;;;;;14.68;7.35;;;;;;;13.17;66.39;150598.59;5044965;28;20082;-63
2023/05/17 01:20:33;;;;;;;13.13;7.70;;;;;;;13.18;66.11;150599.88;5044845;28;20046;-64
2023/05/17 01:23:08;;;;;;;13.27;7.07;;;;;;;13.14;66.43;150590.91;5045475;28;20067;-63
2023/05/17 01:26:04;;;;;;;12.57;7.50;;;;;;;12.84;67.06;150516.38;5044999;28;20040;-64
2023/05/17 01:28:32;;;;;;;13.10;6.97;;;;;;;13.09;66.11;150578.03;5042611;28;20310;-63
2023/05/17 01:31:01;;;;;;;16.80;7.70;;;;;;;13.05;66.50;150569.03;5045121;28;20317;-63
2023/05/17 01:33:27;;;;;;;13.40;6.78;;;;;;;13.06;67.19;150570.34;5045104;28;20079;-63
2023/05/17 01:35:52;;;;;;;11.18;6.82;;;;;;;13.03;67.24;150562.63;5045296;28;20029;-63
2023/05/17 01:38:18;;;;;;;13.95;8.13;;;;;;;12.94;66.54;150542.06;5027101;28;20029;-62
2023/05/17 01:41:00;;;;;;;11.60;7.30;;;;;;;12.94;67.26;150542.06;5044754;28;20249;-63
2023/05/17 01:43:34;;;;;;;;;;;;;;;12.94;67.42;150540.78;5045199;28;20310;-63
2023/05/17 01:46:15;;;;;;;15.55;6.60;;;;;;;12.90;67.44;150530.50;5044544;28;19927;-63
2023/05/17 01:48:48;;;;;;;12.95;7.18;;;;;;;12.76;66.95;150495.81;5044142;28;20028;-62
2023/05/17 01:51:19;;;;;;;13.20;6.95;;;;;;;12.82;67.08;150511.22;5043987;28;20222;-63
2023/05/17 01:53:54;;;;;;;11.13;7.10;;;;;;;12.89;66.47;150529.19;5044577;28;20040;-63
2023/05/17 01:56:27;;;;;;;15.55;9.05;;;;;;;12.83;67.25;150513.81;5024746;28;20271;-64
2023/05/17 01:58:53;;;;;;;15.20;7.97;;;;;;;12.84;68.04;150516.38;5041535;28;20025;-63
2023/05/17 02:01:20;;;;;;;13.07;7.93;;;;;;;12.77;67.47;150499.66;5023229;28;20175;-63
2023/05/17 02:03:49;;;;;;;13.93;7.90;;;;;;;12.86;67.35;150521.50;5034347;28;20441;-65
2023/05/17 02:06:16;;;;;;;13.20;7.40;;;;;;;12.90;67.72;150531.78;5044677;28;20306;-63
2023/05/17 02:08:41;;;;;;;12.77;7.50;;;;;;;12.91;66.69;150534.38;5044399;28;20096;-64
2023/05/17 02:11:07;;;;;;;12.30;7.40;;;;;;;12.88;67.94;150526.66;5044039;28;20131;-63
2023/05/17 02:13:33;;;;;;;11.15;7.68;;;;;;;12.87;67.78;150524.06;5042889;28;20033;-64
2023/05/17 02:16:00;;;;;;;14.38;8.25;;;;;;;12.91;67.17;150533.06;5043764;28;20026;-64
2023/05/17 02:18:26;;;;;;;15.25;7.68;;;;;;;12.91;67.45;150534.38;5043550;28;20027;-64
2023/05/17 02:20:52;;;;;;;10.07;6.88;;;;;;;12.99;68.41;150553.63;5043944;28;20029;-63
2023/05/17 02:23:17;;;;;;;16.48;8.63;;;;;;;12.93;66.88;150539.47;5044005;28;20097;-66
2023/05/17 02:25:43;;;;;;;14.80;6.93;;;;;;;13.04;67.33;150565.16;5043962;28;20033;-64
2023/05/17 02:28:08;;;;;;;16.75;7.22;;;;;;;13.11;66.71;150584.47;5042818;28;20049;-64
2023/05/17 02:30:34;;;;;;;15.50;7.40;;;;;;;13.20;67.34;150606.31;5038206;28;20172;-64
2023/05/17 02:33:00;;;;;;;14.43;7.53;;;;;;;13.22;67.45;150611.41;5025307;28;20337;-63
2023/05/17 02:35:25;;;;;;;16.38;7.88;;;;;;;13.26;67.51;150620.44;5043747;28;20425;-62
2023/05/17 02:37:51;;;;;;;16.02;7.60;;;;;;;13.35;66.66;150642.34;5043858;28;20026;-63
2023/05/17 02:40:17;;;;;;;13.30;7.20;;;;;;;13.23;66.09;150612.75;5043357;28;20032;-65
2023/05/17 02:42:42;;;;;;;12.43;7.55;;;;;;;13.52;66.05;150686.00;5022712;28;20033;-65
2023/05/17 02:45:08;;;;;;;16.63;7.82;;;;;;;13.64;66.57;150715.63;5025921;28;20030;-64
2023/05/17 02:47:34;;;;;;;16.15;7.10;;;;;;;13.66;66.81;150719.47;5043654;28;20041;-64
2023/05/17 02:49:59;;;;;;;16.52;8.23;;;;;;;13.60;66.38;150706.59;5043620;28;20025;-66
2023/05/17 02:52:25;;;;;;;19.15;7.47;;;;;;;13.66;65.91;150720.72;5043266;28;20025;-64
2023/05/17 02:54:50;;;;;;;20.90;8.00;;;;;;;13.78;66.47;150750.28;5043479;28;20029;-64
2023/05/17 02:57:16;;;;;;;15.10;7.55;;;;;;;13.89;65.39;150778.56;5043269;28;20040;-66
2023/05/17 02:59:42;;;;;;;11.55;6.82;;;;;;;13.91;65.45;150782.41;5043496;28;20029;-64
2023/05/17 03:02:07;;;;;;;20.25;7.00;;;;;;;13.97;65.53;150799.16;5043457;28;20242;-63
2023/05/17 03:04:33;;;;;;;16.60;7.30;;;;;;;14.09;65.45;150827.44;5043467;28;20055;-64
2023/05/17 03:06:58;;;;;;;9.85;6.43;;;;;;;14.14;65.08;150840.31;5043639;28;20308;-64
2023/05/17 03:09:24;;;;;;;11.95;6.97;;;;;;;14.17;65.70;150848.03;5043013;28;20041;-63
2023/05/17 03:11:50;;;;;;;16.17;7.60;;;;;;;14.27;66.32;150873.72;5043071;28;20025;-63
2023/05/17 03:14:15;;;;;;;23.20;8.95;;;;;;;14.32;65.57;150886.63;5042692;28;20025;-63
2023/05/17 03:16:41;;;;;;;14.35;7.60;;;;;;;14.39;65.56;150903.28;5043076;28;20028;-62
2023/05/17 03:19:06;;;;;;;19.70;9.68;;;;;;;14.55;65.70;150943.22;5043066;28;20025;-62
2023/05/17 03:21:32;;;;;;;13.25;8.55;;;;;;;14.61;62.75;150957.34;5043128;28;20033;-64
2023/05/17 03:23:57;;;;;;;10.95;7.25;;;;;;;14.66;62.38;150971.56;5043145;28;20032;-64
2023/05/17 03:26:23;;;;;;;12.45;8.23;;;;;;;14.83;62.36;151013.97;5043668;28;20306;-64
2023/05/17 03:28:49;;;;;;;12.25;8.10;;;;;;;14.76;61.74;150995.97;5049334;28;20096;-65
2023/05/17 03:31:16;;;;;;;16.15;8.32;;;;;;;14.91;61.96;151032.03;5055442;28;20088;-64
2023/05/17 03:33:42;;;;;;;10.75;7.85;;;;;;;14.89;59.70;151026.84;5063263;28;20078;-65
2023/05/17 03:36:07;;;;;;;16.10;8.18;;;;;;;15.07;59.81;151071.91;5049523;28;20234;-64
2023/05/17 03:38:33;;;;;;;20.42;8.15;;;;;;;15.14;61.51;151089.91;5049577;28;20044;-65
2023/05/17 03:40:59;;;;;;;13.48;7.82;;;;;;;15.18;60.39;151101.47;5049516;28;20033;-65
2023/05/17 03:43:25;;;;;;;15.90;9.18;;;;;;;15.09;59.38;151077.03;5049232;28;20346;-64
2023/05/17 03:45:50;;;;;;;14.80;8.13;;;;;;;15.27;59.90;151123.34;5031661;28;20025;-64
2023/05/17 03:48:16;;;;;;;12.90;6.97;;;;;;;15.41;60.32;151158.13;5049344;28;20083;-63
2023/05/17 03:50:41;;;;;;;15.13;7.68;;;;;;;15.41;59.07;151158.13;5049350;28;20025;-67
2023/05/17 03:53:08;;;;;;;15.23;7.63;;;;;;;15.53;58.63;151187.69;5015122;28;20039;-64
2023/05/17 03:55:34;;;;;;;21.98;9.05;;;;;;;15.64;58.63;151214.75;5049431;28;20055;-63
2023/05/17 03:57:59;;;;;;;16.25;7.38;;;;;;;15.78;59.14;151249.53;5049177;28;20295;-64
2023/05/17 04:00:25;;;;;;;13.52;7.43;;;;;;;15.89;58.71;151277.91;5049287;28;20025;-65
2023/05/17 04:02:50;;;;;;;15.70;7.43;;;;;;;15.97;58.64;151298.47;5031814;28;20048;-64
2023/05/17 04:05:17;;;;;;;14.82;7.63;;;;;;;16.08;57.14;151325.53;5049044;28;20067;-63
2023/05/17 04:07:43;;;;;;;14.93;7.75;;;;;;;16.21;57.37;151357.72;5049102;28;20059;-63
2023/05/17 04:10:09;;;;;;;19.85;8.40;;;;;;;16.24;57.83;151364.16;5049158;28;20048;-63
2023/05/17 04:12:35;;;;;;;19.27;6.70;;;;;;;16.29;56.15;151378.34;5047998;28;20107;-63
2023/05/17 04:15:03;;;;;;;12.20;7.65;;;;;;;16.42;56.85;151410.53;5048253;28;20285;-63
2023/05/17 04:17:29;;;;;;;13.88;6.97;;;;;;;16.46;55.91;151420.84;5049242;28;20329;-64
2023/05/17 04:19:55;;;;;;;20.98;7.93;;;;;;;16.60;56.23;151454.31;5048673;28;20030;-64
2023/05/17 04:22:21;;;;;;;14.40;7.63;;;;;;;16.55;54.60;151444.00;5048771;28;20085;-63
2023/05/17 04:24:46;;;;;;;14.10;7.03;;;;;;;16.60;54.57;151455.56;5031374;28;20232;-64
2023/05/17 04:27:12;;;;;;;18.83;6.93;;;;;;;16.68;53.88;151476.19;5048724;28;20033;-63
2023/05/17 04:29:38;;;;;;;16.20;6.32;;;;;;;16.69;55.45;151478.78;5048754;28;20021;-63
2023/05/17 04:32:03;;;;;;;15.07;6.93;;;;;;;16.82;55.30;151509.72;5046595;28;20102;-63
2023/05/17 04:34:30;;;;;;;16.77;7.15;;;;;;;16.82;55.49;151511.00;5048581;28;20120;-64
2023/05/17 04:36:56;;;;;;;16.55;7.15;;;;;;;16.93;54.70;151538.13;5047716;28;20318;-63
2023/05/17 04:39:22;;;;;;;19.10;6.95;;;;;;;17.03;53.40;151563.88;5045294;28;20236;-64
2023/05/17 04:41:48;;;;;;;17.20;7.32;;;;;;;17.14;53.48;151590.91;5042436;28;20037;-63
2023/05/17 04:44:14;;;;;;;14.48;7.43;;;;;;;17.40;53.12;151655.34;5045274;28;20030;-62
2023/05/17 04:46:40;;;;;;;10.68;6.18;;;;;;;17.57;52.30;151697.88;5044727;28;20021;-63
2023/05/17 04:49:07;;;;;;;15.88;6.18;;;;;;;17.76;53.11;151746.88;5045524;28;20033;-63
2023/05/17 04:51:32;;;;;;;14.75;6.68;;;;;;;17.72;52.57;151736.56;5027866;28;20059;-66
2023/05/17 04:54:02;;;;;;;13.82;6.55;;;;;;;17.94;51.49;151790.75;5046535;28;20066;-66
2023/05/17 04:56:28;;;;;;;15.57;7.28;;;;;;;18.16;51.39;151846.22;5025733;28;20072;-70
2023/05/17 04:58:54;;;;;;;15.10;6.20;;;;;;;18.49;51.40;151927.50;5040513;28;20040;-67
2023/05/17 05:01:19;;;;;;;11.00;5.65;;;;;;;18.27;48.07;151874.59;5027432;28;20030;-65
2023/05/17 05:03:45;;;;;;;9.13;6.35;;;;;;;18.40;48.81;151905.56;5045388;28;20119;-65
2023/05/17 05:06:10;;;;;;;14.40;6.15;;;;;;;18.58;48.46;151950.69;5045274;28;20060;-67
2023/05/17 05:08:36;;;;;;;15.00;6.38;;;;;;;18.65;48.68;151968.75;5045275;28;20060;-65
2023/05/17 05:11:02;;;;;;;13.50;6.18;;;;;;;18.66;48.36;151971.34;5045226;28;20037;-64
2023/05/17 05:13:28;;;;;;;11.32;5.60;;;;;;;18.89;48.25;152028.16;5045187;28;20226;-65
2023/05/17 05:15:53;;;;;;;15.38;6.03;;;;;;;19.23;46.79;152113.34;5044991;28;20049;-63
2023/05/17 05:18:19;;;;;;;16.33;6.70;;;;;;;19.62;46.23;152212.72;5044853;28;20056;-66
2023/05/17 05:20:48;;;;;;;17.00;6.95;;;;;;;19.64;46.61;152217.88;5027333;28;20030;-67
2023/05/17 05:23:14;;;;;;;18.42;7.88;;;;;;;19.52;45.96;152185.59;5027287;28;20044;-66
2023/05/17 05:25:39;;;;;;;14.98;7.78;;;;;;;19.69;44.37;152229.47;5044932;28;20210;-65
2023/05/17 05:28:05;;;;;;;14.98;6.97;;;;;;;19.98;44.54;152301.81;5044969;28;20063;-66
2023/05/17 05:30:31;;;;;;;12.77;6.90;;;;;;;20.36;44.43;152397.38;5041065;28;20038;-67
2023/05/17 05:32:57;;;;;;;19.15;7.60;;;;;;;20.47;44.53;152425.81;5016951;28;20033;-66
2023/05/17 05:35:28;;;;;;;13.43;7.00;;;;;;;20.58;43.85;152452.94;5043847;28;20033;-66
2023/05/17 05:37:53;;;;;;;11.52;6.22;;;;;;;20.77;43.63;152500.78;5044622;28;20093;-65
2023/05/17 05:40:19;;;;;;;15.10;5.90;;;;;;;20.76;42.72;152496.91;5044146;28;20068;-65
2023/05/17 05:42:46;;;;;;;15.10;6.32;;;;;;;20.63;43.49;152464.56;5043565;28;20025;-66
2023/05/17 05:45:12;;;;;;;11.55;5.72;;;;;;;20.65;42.21;152469.69;5044799;28;20048;-65
2023/05/17 05:47:37;;;;;;;8.00;4.78;;;;;;;20.48;43.33;152428.41;5044446;28;20033;-65
2023/05/17 05:50:05;;;;;;;9.07;3.95;;;;;;;20.43;40.93;152415.47;5043578;28;20071;-64
2023/05/17 05:52:30;;;;;;;6.22;3.85;;;;;;;20.56;41.69;152446.47;5043891;28;20069;-64
2023/05/17 05:54:56;;;;;;;8.57;4.05;;;;;;;20.68;41.95;152478.81;5044039;28;20046;-65
2023/05/17 05:57:22;;;;;;;5.95;3.65;;;;;;;20.77;41.72;152499.50;5026626;28;20025;-65
2023/05/17 05:59:47;;;;;;;9.88;4.45;;;;;;;20.74;43.76;152493.03;5044071;28;20071;-63
2023/05/17 06:02:13;;;;;;;9.27;3.78;;;;;;;20.55;41.32;152445.22;5044521;28;20033;-65
2023/05/17 06:04:38;;;;;;;6.32;3.53;;;;;;;20.62;41.12;152461.97;5026796;28;20025;-66
2023/05/17 06:07:04;;;;;;;9.10;4.03;;;;;;;20.73;41.57;152490.44;5044609;28;20049;-64
2023/05/17 06:09:30;;;;;;;8.27;3.80;;;;;;;20.61;41.15;152459.41;5043685;28;20298;-65
2023/05/17 06:11:55;;;;;;;8.27;3.58;;;;;;;20.68;40.88;152477.53;5044418;28;20299;-64
2023/05/17 06:14:21;;;;;;;5.95;3.00;;;;;;;20.73;41.56;152489.16;5043911;28;20040;-65
2023/05/17 06:16:47;;;;;;;5.68;3.03;;;;;;;20.54;40.47;152442.59;5044061;28;20026;-66
2023/05/17 06:19:13;;;;;;;6.53;3.22;;;;;;;20.76;40.99;152498.19;5044096;28;20294;-67
2023/05/17 06:21:39;;;;;;;5.47;2.65;;;;;;;20.89;41.75;152529.19;5043816;28;20048;-67
2023/05/17 06:24:05;;;;;;;6.05;3.03;;;;;;;20.80;40.13;152508.50;5043547;28;20088;-64
2023/05/17 06:26:31;;;;;;;4.93;2.72;;;;;;;20.85;40.74;152521.47;5043670;28;20168;-65
2023/05/17 06:28:56;;;;;;;5.82;3.30;;;;;;;20.91;40.86;152534.34;5044094;28;20193;-66
2023/05/17 06:31:22;;;;;;;7.45;3.13;;;;;;;20.69;40.48;152481.41;5053883;28;20032;-67
2023/05/17 06:33:47;;;;;;;5.25;3.00;;;;;;;20.71;40.55;152485.28;5058358;28;20044;-67
2023/05/17 06:36:13;;;;;;;11.32;3.90;;;;;;;20.91;40.74;152534.34;5043356;28;20032;-66
2023/05/17 06:38:39;;;;;;;7.60;2.78;;;;;;;21.01;40.97;152560.22;5043390;28;20033;-66
2023/05/17 06:41:04;;;;;;;4.47;2.42;;;;;;;21.10;41.26;152582.19;5043508;28;20033;-65
2023/05/17 06:43:30;;;;;;;4.63;2.30;;;;;;;21.22;40.88;152613.22;5043311;28;20101;-64
2023/05/17 06:45:56;;;;;;;5.97;2.40;;;;;;;21.33;41.01;152640.31;5043454;28;20069;-65
2023/05/17 06:48:21;;;;;;;7.18;2.35;;;;;;;21.42;39.84;152662.28;5043106;28;20321;-65
2023/05/17 06:50:47;;;;;;;4.30;2.50;;;;;;;21.33;39.99;152640.31;5043422;28;20063;-64
2023/05/17 06:53:13;;;;;;;5.38;2.75;;;;;;;21.27;38.90;152624.81;5043415;28;20071;-66
2023/05/17 06:55:39;;;;;;;3.78;2.17;;;;;;;21.22;39.54;152613.22;5042980;28;20056;-66
2023/05/17 06:58:04;;;;;;;5.45;2.20;;;;;;;21.37;39.53;152650.66;5040595;28;20034;-64
2023/05/17 07:00:30;;;;;;;4.32;2.22;;;;;;;21.41;39.91;152661.00;5041917;28;20303;-65
2023/05/17 07:02:56;;;;;;;2.83;2.20;;;;;;;21.44;38.87;152668.75;5041831;28;20326;-64
2023/05/17 07:05:23;;;;;;;5.35;2.28;;;;;;;21.54;38.39;152694.63;5040935;28;20041;-65
2023/05/17 07:07:48;;;;;;;6.07;2.42;;;;;;;21.58;38.98;152703.72;5041774;28;20349;-66
2023/05/17 07:10:14;;;;;;;13.18;3.33;;;;;;;21.71;39.31;152737.31;5021849;28;20009;-67
2023/05/17 07:12:40;;;;;;;7.57;2.28;;;;;;;21.39;38.27;152655.81;5041795;28;20033;-66
2023/05/17 07:15:06;;;;;;;5.38;2.40;;;;;;;21.34;37.82;152644.19;5042098;28;20033;-65
2023/05/17 07:17:32;;;;;;;4.28;2.30;;;;;;;21.36;37.87;152648.06;5042173;28;20045;-65
2023/05/17 07:19:57;;;;;;;14.65;2.83;;;;;;;21.35;38.06;152645.50;5042165;28;20025;-66
2023/05/17 07:22:23;;;;;;;6.97;1.90;;;;;;;21.63;38.44;152716.59;5041794;28;20093;-66
2023/05/17 07:24:49;;;;;;;6.25;1.95;;;;;;;21.77;37.57;152751.53;5024385;28;20207;-66
2023/05/17 07:27:15;;;;;;;10.20;2.28;;;;;;;21.69;37.62;152732.16;5041652;28;20033;-67
2023/05/17 07:29:41;;;;;;;4.25;2.38;;;;;;;21.83;37.03;152767.06;5042220;28;20021;-66
2023/05/17 07:32:08;;;;;;;5.15;2.45;;;;;;;21.63;37.10;152715.34;5042220;28;20080;-65
2023/05/17 07:34:35;;;;;;;6.40;2.13;;;;;;;21.67;37.39;152725.69;5041709;28;20037;-65
2023/05/17 07:37:00;;;;;;;4.22;2.58;;;;;;;21.77;36.63;152751.53;5041333;28;20033;-65
2023/05/17 07:39:26;;;;;;;4.97;2.20;;;;;;;21.64;36.94;152717.94;5042036;28;20186;-64
2023/05/17 07:41:52;;;;;;;6.13;2.30;;;;;;;21.68;37.21;152728.28;5042383;28;20295;-65
2023/05/17 07:44:17;;;;;;;5.43;2.38;;;;;;;21.86;38.24;152774.81;5042776;28;20057;-67
2023/05/17 07:46:43;;;;;;;2.35;2.10;;;;;;;22.03;37.44;152816.16;5041888;28;20021;-66
2023/05/17 07:49:09;;;;;;;10.98;3.47;;;;;;;22.08;37.89;152827.84;5042065;28;20369;-66
2023/05/17 07:51:35;;;;;;;7.75;2.67;;;;;;;22.18;38.34;152854.97;5042126;28;20080;-65
2023/05/17 07:54:02;;;;;;;4.72;2.30;;;;;;;22.16;37.00;152849.81;5041888;28;20195;-66
2023/05/17 07:56:28;;;;;;;2.70;2.10;;;;;;;22.22;36.60;152864.03;5041810;28;20237;-68
2023/05/17 07:58:54;;;;;;;8.02;2.63;;;;;;;22.00;35.70;152809.69;5042171;28;20302;-66
2023/05/17 08:01:20;;;;;;;3.97;2.72;;;;;;;22.10;35.58;152834.25;5042230;28;20026;-68
2023/05/17 08:03:48;;;;;;;7.03;2.30;;;;;;;22.13;35.91;152842.00;5042119;28;20104;-66
2023/05/17 08:06:17;;;;;;;3.85;2.40;;;;;;;22.08;35.97;152829.09;5042275;28;20072;-65
2023/05/17 08:08:43;;;;;;;10.00;2.55;;;;;;;22.16;35.64;152848.47;5042434;28;20061;-66
2023/05/17 08:11:10;;;;;;;8.43;2.83;;;;;;;22.30;36.46;152883.41;5042509;28;20026;-66
2023/05/17 08:13:36;;;;;;;4.68;2.50;;;;;;;22.41;37.41;152911.91;5043778;28;20322;-66
2023/05/17 08:16:02;;;;;;;9.50;2.70;;;;;;;22.52;37.12;152940.38;5046112;28;20041;-66
2023/05/17 08:18:31;;;;;;;2.50;2.30;;;;;;;22.66;36.95;152973.97;5027877;28;20237;-65
2023/05/17 08:20:57;;;;;;;4.20;2.38;;;;;;;22.79;37.24;153007.63;5045834;28;20029;-66
2023/05/17 08:23:23;;;;;;;7.18;2.60;;;;;;;22.46;36.43;152923.53;5045929;28;20055;-67
2023/05/17 08:25:48;;;;;;;4.47;2.42;;;;;;;22.50;36.43;152935.22;5028123;28;20092;-66
2023/05/17 08:28:14;;;;;;;8.95;3.10;;;;;;;22.64;36.12;152970.09;5045564;28;20199;-67
2023/05/17 08:30:40;;;;;;;5.13;2.88;;;;;;;22.52;36.02;152939.09;5029280;28;20036;-66
2023/05/17 08:33:08;;;;;;;3.50;2.80;;;;;;;22.72;37.22;152989.53;5025991;28;20036;-65
2023/05/17 08:35:33;;;;;;;26.08;4.15;;;;;;;23.00;36.88;153060.69;5026840;28;20033;-66
2023/05/17 08:37:59;;;;;;;7.63;2.85;;;;;;;23.04;36.67;153071.00;5045190;28;20057;-65
2023/05/17 08:40:26;;;;;;;5.18;2.55;;;;;;;22.70;35.43;152985.66;5045753;28;20021;-65
2023/05/17 08:42:52;;;;;;;11.75;3.08;;;;;;;23.05;36.01;153072.31;5043678;28;20192;-66
2023/05/17 08:45:18;;;;;;;11.52;2.63;;;;;;;23.03;35.91;153067.13;5045424;28;20059;-66
2023/05/17 08:47:45;;;;;;;6.40;2.78;;;;;;;23.24;35.99;153121.53;5044758;28;20033;-67
2023/05/17 08:50:11;;;;;;;7.82;2.50;;;;;;;23.16;35.79;153100.84;5045481;28;20033;-66
2023/05/17 08:52:39;;;;;;;5.80;2.50;;;;;;;23.20;35.45;153109.88;5044674;28;20184;-66
2023/05/17 08:55:07;;;;;;;8.38;2.95;;;;;;;23.37;35.56;153152.56;5045242;28;20055;-66
2023/05/17 08:57:37;;;;;;;5.82;2.53;;;;;;;23.36;35.17;153149.97;5044686;28;20027;-66
2023/05/17 09:00:11;;;;;;;10.32;2.97;;;;;;;23.34;34.69;153144.81;5044901;28;20617;-64
2023/05/17 09:02:37;;;;;;;3.50;2.47;;;;;;;23.50;34.83;153186.25;5044637;28;20025;-66
2023/05/17 09:05:05;;;;;;;78.50;7.80;;;;;;;23.59;35.60;153209.50;5042594;28;20226;-66
2023/05/17 09:07:31;;;;;;;5.88;2.58;;;;;;;23.74;35.13;153245.75;5043951;28;20086;-66
2023/05/17 09:09:57;;;;;;;70.90;6.20;;;;;;;23.81;35.44;153262.59;5044826;28;20080;-67
2023/05/17 09:12:23;;;;;;;9.73;3.40;;;;;;;23.67;35.05;153227.63;5044711;28;20029;-65
2023/05/17 09:14:49;;;;;;;7.20;2.88;;;;;;;23.53;34.00;153194.00;5045011;28;20033;-65
2023/05/17 09:17:20;;;;;;;4.47;2.35;;;;;;;23.57;34.38;153203.03;5010369;28;20017;-67
2023/05/17 09:19:47;;;;;;;7.43;2.92;;;;;;;23.73;34.61;153244.47;5044330;28;20025;-67
2023/05/17 09:22:22;;;;;;;4.85;2.38;;;;;;;23.90;34.72;153285.91;5042043;28;20033;-66
2023/05/17 09:24:48;;;;;;;11.73;3.17;;;;;;;23.70;33.72;153235.38;5043790;28;20033;-67
2023/05/17 09:27:17;;;;;;;4.68;2.50;;;;;;;23.74;34.04;153247.06;5044915;28;20194;-66
2023/05/17 09:29:45;;;;;;;6.82;2.80;;;;;;;23.84;33.37;153271.63;5044010;28;20253;-67
2023/05/17 09:32:16;;;;;;;3.58;2.35;;;;;;;23.91;33.92;153288.53;5044546;28;20225;-66
2023/05/17 09:34:44;;;;;;;3.80;2.40;;;;;;;24.01;34.62;153313.13;5044335;28;20013;-66
2023/05/17 09:37:17;;;;;;;4.90;2.80;;;;;;;23.91;34.83;153289.84;5044327;28;20372;-66
2023/05/17 09:39:44;;;;;;;5.28;2.78;;;;;;;23.73;33.36;153243.19;5043814;28;20057;-65
2023/05/17 09:42:11;;;;;;;3.13;2.72;;;;;;;23.68;33.92;153231.50;5044541;28;20032;-66
2023/05/17 09:44:58;;;;;;;5.85;2.92;;;;;;;23.79;34.07;153258.72;5043010;28;20028;-67
2023/05/17 09:47:25;;;;;;;5.15;2.60;;;;;;;23.77;33.93;153254.84;5042073;28;20298;-66
2023/05/17 09:49:51;;;;;;;5.57;3.00;;;;;;;23.83;34.35;153267.75;5044019;28;20024;-66
2023/05/17 09:52:19;;;;;;;15.50;4.72;;;;;;;23.88;33.72;153280.75;5044166;28;20021;-66
2023/05/17 09:54:55;;;;;;;4.15;3.08;;;;;;;23.78;34.34;153256.13;5026600;28;20133;-67
2023/05/17 09:57:22;;;;;;;7.25;2.80;;;;;;;23.97;35.27;153302.75;5041998;28;20083;-66
2023/05/17 09:59:48;;;;;;;3.92;2.72;;;;;;;23.97;33.72;153302.75;5028034;28;20088;-67
2023/05/17 10:02:20;;;;;;;6.57;2.80;;;;;;;24.10;34.42;153336.44;5042765;28;20032;-67
2023/05/17 10:04:49;;;;;;;6.45;3.10;;;;;;;24.09;35.40;153335.13;5041594;28;20336;-66
2023/05/17 10:07:18;;;;;;;6.97;3.15;;;;;;;23.90;34.12;153285.91;5044185;28;20044;-67
2023/05/17 10:09:46;;;;;;;7.05;3.50;;;;;;;24.02;34.57;153315.72;5041276;28;20053;-68
2023/05/17 10:12:16;;;;;;;6.38;2.85;;;;;;;23.55;33.59;153197.88;5043646;28;20198;-66
2023/05/17 10:14:43;;;;;;;3.60;2.90;;;;;;;23.88;34.70;153282.03;5042308;28;20025;-68
2023/05/17 10:17:10;;;;;;;5.72;2.92;;;;;;;23.96;34.11;153301.47;5044055;28;20037;-68
2023/05/17 10:19:36;;;;;;;6.40;2.80;;;;;;;23.85;34.41;153272.94;5043515;28;20075;-67
2023/05/17 10:22:02;;;;;;;7.07;2.85;;;;;;;23.90;33.27;153287.25;5043875;28;20041;-66
2023/05/17 10:24:29;;;;;;;4.22;2.90;;;;;;;23.83;33.75;153269.06;5043547;28;20018;-66
2023/05/17 10:26:56;;;;;;;6.32;3.00;;;;;;;23.93;33.66;153293.72;5043467;28;20029;-66
2023/05/17 10:29:22;;;;;;;5.22;2.90;;;;;;;23.97;34.60;153302.75;5042581;28;20021;-68
2023/05/17 10:31:51;;;;;;;6.38;3.00;;;;;;;23.86;33.65;153275.56;5025200;28;20045;-67
2023/05/17 10:34:18;;;;;;;5.85;3.20;;;;;;;23.95;34.66;153300.16;5033946;28;20242;-67
2023/05/17 10:36:45;;;;;;;4.10;3.13;;;;;;;23.89;34.68;153284.63;5040980;28;20045;-67
2023/05/17 10:39:11;;;;;;;3.45;2.65;;;;;;;24.05;34.38;153323.47;5042702;28;20028;-67
2023/05/17 10:41:43;;;;;;;4.13;2.55;;;;;;;23.97;34.29;153302.75;5042493;28;20052;-67
2023/05/17 10:44:12;;;;;;;5.80;2.85;;;;;;;23.90;33.72;153285.91;5043451;28;20033;-67
2023/05/17 10:46:38;;;;;;;5.75;2.92;;;;;;;23.85;33.51;153274.22;5043495;28;20030;-66
2023/05/17 10:49:04;;;;;;;6.18;2.78;;;;;;;23.98;33.94;153306.66;5042073;28;20040;-67
2023/05/17 10:51:33;;;;;;;3.38;3.00;;;;;;;23.49;33.62;153183.66;5042047;28;20146;-67
2023/05/17 10:54:17;;;;;;;7.60;3.22;;;;;;;23.53;34.11;153194.00;5042450;28;20048;-68
2023/05/17 10:56:48;;;;;;;6.90;2.80;;;;;;;23.54;33.51;153196.56;5041545;28;20088;-67
2023/05/17 10:59:20;;;;;;;6.07;2.97;;;;;;;23.46;33.69;153175.88;5025254;28;20032;-68
2023/05/17 11:02:08;;;;;;;4.85;2.92;;;;;;;23.58;34.65;153206.91;5042413;28;20044;-67
2023/05/17 11:04:41;;;;;;;5.00;2.70;;;;;;;23.35;33.75;153148.69;5042654;28;20029;-66
2023/05/17 11:07:16;;;;;;;4.57;2.60;;;;;;;23.61;33.92;153213.41;5041672;28;20337;-68
2023/05/17 11:09:49;;;;;;;7.20;2.70;;;;;;;23.50;33.84;153186.25;5043491;28;20033;-67
2023/05/17 11:12:16;;;;;;;7.72;3.58;;;;;;;23.75;34.72;153249.63;5042642;28;20033;-66
2023/05/17 11:14:46;;;;;;;5.68;2.90;;;;;;;23.88;34.84;153280.75;5042434;28;20052;-67
2023/05/17 11:17:17;;;;;;;8.20;3.05;;;;;;;23.90;34.42;153285.91;5042753;28;20025;-67
2023/05/17 11:19:58;;;;;;;4.65;2.40;;;;;;;23.92;32.79;153292.41;5042423;28;20033;-66
2023/05/17 11:22:24;;;;;;;9.70;3.22;;;;;;;23.93;32.79;153293.72;5041624;28;20083;-67